createdAt,value
2017-01-20T00:00:54.885Z,989.97
2017-01-20T00:02:03.586Z,989.98
2017-01-20T00:03:12.277Z,990.03
2017-01-20T00:04:20.970Z,990.03
2017-01-20T00:05:29.717Z,989.99
2017-01-20T00:06:38.411Z,989.99
2017-01-20T00:07:47.137Z,989.96
2017-01-20T00:08:55.830Z,989.96
2017-01-20T00:10:04.519Z,989.94
2017-01-20T00:11:13.260Z,990.04
2017-01-20T00:12:21.979Z,989.97
2017-01-20T00:13:30.667Z,990.02
2017-01-20T00:14:39.359Z,989.99
2017-01-20T00:15:48.055Z,989.99
2017-01-20T00:16:56.801Z,989.95
2017-01-20T00:18:05.496Z,990
2017-01-20T00:19:14.186Z,989.93
2017-01-20T00:20:22.881Z,989.89
2017-01-20T00:21:31.577Z,989.87
2017-01-20T00:22:40.316Z,989.85
2017-01-20T00:23:49.006Z,989.84
2017-01-20T00:24:57.724Z,989.81
2017-01-20T00:26:06.412Z,989.82
2017-01-20T00:27:15.107Z,989.82
2017-01-20T00:28:23.852Z,989.77
2017-01-20T00:29:32.544Z,989.8
2017-01-20T00:30:41.238Z,989.79
2017-01-20T00:31:49.933Z,989.76
2017-01-20T00:32:58.624Z,989.76
2017-01-20T00:34:07.421Z,989.69
2017-01-20T00:35:16.113Z,989.71
2017-01-20T00:36:24.801Z,989.65
2017-01-20T00:37:33.503Z,989.64
2017-01-20T00:38:42.195Z,989.69
2017-01-20T00:39:50.937Z,989.66
2017-01-20T00:40:59.640Z,989.68
2017-01-20T00:42:08.330Z,989.7
2017-01-20T00:43:17.027Z,989.64
2017-01-20T00:44:25.719Z,989.57
2017-01-20T00:45:34.460Z,989.63
2017-01-20T00:46:43.155Z,989.54
2017-01-20T00:47:51.845Z,989.5
2017-01-20T00:49:00.930Z,989.5
2017-01-20T00:50:09.620Z,989.49
2017-01-20T00:51:18.358Z,989.5
2017-01-20T00:52:27.049Z,989.55
2017-01-20T00:53:35.737Z,989.57
2017-01-20T00:54:44.432Z,989.54
2017-01-20T00:55:53.127Z,989.59
2017-01-20T00:57:01.871Z,989.52
2017-01-20T00:58:10.562Z,989.56
2017-01-20T00:59:19.255Z,989.53
2017-01-20T01:00:27.944Z,989.54
2017-01-20T01:01:36.634Z,989.59
2017-01-20T01:02:45.374Z,989.63
2017-01-20T01:03:54.069Z,989.56
2017-01-20T01:05:02.785Z,989.55
2017-01-20T01:06:11.477Z,989.51
2017-01-20T01:07:20.166Z,989.45
2017-01-20T01:08:28.905Z,989.52
2017-01-20T01:09:37.602Z,989.5
2017-01-20T01:10:46.302Z,989.51
2017-01-20T01:11:54.991Z,989.51
2017-01-20T01:13:03.686Z,989.56
2017-01-20T01:14:12.731Z,989.53
2017-01-20T01:15:21.427Z,989.56
2017-01-20T01:16:30.117Z,989.62
2017-01-20T01:17:38.814Z,989.63
2017-01-20T01:18:47.504Z,989.66
2017-01-20T01:19:56.248Z,989.65
2017-01-20T01:21:04.940Z,989.62
2017-01-20T01:22:13.636Z,989.66
2017-01-20T01:23:22.330Z,989.62
2017-01-20T01:24:31.022Z,989.62
2017-01-20T01:25:39.764Z,989.61
2017-01-20T01:26:48.452Z,989.68
2017-01-20T01:27:57.143Z,989.62
2017-01-20T01:29:05.836Z,989.62
2017-01-20T01:30:14.534Z,989.62
2017-01-20T01:31:23.676Z,989.59
2017-01-20T01:32:32.395Z,989.59
2017-01-20T01:33:41.088Z,989.57
2017-01-20T01:34:49.778Z,989.59
2017-01-20T01:35:58.468Z,989.59
2017-01-20T01:37:07.208Z,989.57
2017-01-20T01:38:15.898Z,989.52
2017-01-20T01:39:24.588Z,989.49
2017-01-20T01:40:33.279Z,989.42
2017-01-20T01:41:41.968Z,989.41
2017-01-20T01:42:50.714Z,989.38
2017-01-20T01:43:59.403Z,989.39
2017-01-20T01:45:08.096Z,989.32
2017-01-20T01:46:16.786Z,989.28
2017-01-20T01:47:25.475Z,989.25
2017-01-20T01:48:34.222Z,989.21
2017-01-20T01:49:42.912Z,989.16
2017-01-20T01:50:51.606Z,989.16
2017-01-20T01:52:00.298Z,989.19
2017-01-20T01:53:08.995Z,989.14
2017-01-20T01:54:17.739Z,989.12
2017-01-20T01:55:26.431Z,989.12
2017-01-20T01:56:35.123Z,989.05
2017-01-20T01:57:43.812Z,989.03
2017-01-20T01:58:52.501Z,989.01
2017-01-20T02:00:01.247Z,989.02
2017-01-20T02:01:09.939Z,989.03
2017-01-20T02:02:18.631Z,989.05
2017-01-20T02:03:27.327Z,989.02
2017-01-20T02:04:36.018Z,989.03
2017-01-20T02:05:44.757Z,989.08
2017-01-20T02:06:53.450Z,989.12
2017-01-20T02:08:02.144Z,989.11
2017-01-20T02:09:10.841Z,989.07
2017-01-20T02:10:19.531Z,989.08
2017-01-20T02:11:28.274Z,989.04
2017-01-20T02:12:36.965Z,989.01
2017-01-20T02:13:45.660Z,989.04
2017-01-20T02:14:54.354Z,989.02
2017-01-20T02:16:03.045Z,989.01
2017-01-20T02:17:11.785Z,989.02
2017-01-20T02:18:20.480Z,989.04
2017-01-20T02:19:29.182Z,988.99
2017-01-20T02:20:37.880Z,989.02
2017-01-20T02:21:46.573Z,988.97
2017-01-20T02:22:55.315Z,988.94
2017-01-20T02:24:04.006Z,988.93
2017-01-20T02:25:12.697Z,988.89
2017-01-20T02:26:21.389Z,988.82
2017-01-20T02:27:30.090Z,988.88
2017-01-20T02:28:38.880Z,988.94
2017-01-20T02:29:47.571Z,988.91
2017-01-20T02:30:56.267Z,988.93
2017-01-20T02:32:05.003Z,988.92
2017-01-20T02:33:13.695Z,988.91
2017-01-20T02:34:22.461Z,988.95
2017-01-20T02:35:31.158Z,988.98
2017-01-20T02:36:39.885Z,988.97
2017-01-20T02:37:48.577Z,988.96
2017-01-20T02:38:57.273Z,989.02
2017-01-20T02:40:06.011Z,988.99
2017-01-20T02:41:14.705Z,989.01
2017-01-20T02:42:23.405Z,989.01
2017-01-20T02:43:32.100Z,988.99
2017-01-20T02:44:40.797Z,989.05
2017-01-20T02:45:49.536Z,989.09
2017-01-20T02:46:58.232Z,989.01
2017-01-20T02:48:07.321Z,988.99
2017-01-20T02:49:16.010Z,988.98
2017-01-20T02:50:24.702Z,988.99
2017-01-20T02:51:33.447Z,988.95
2017-01-20T02:52:42.140Z,988.92
2017-01-20T02:53:50.832Z,988.92
2017-01-20T02:54:59.529Z,988.88
2017-01-20T02:56:08.221Z,988.89
2017-01-20T02:57:16.962Z,988.9
2017-01-20T02:58:25.649Z,988.89
2017-01-20T02:59:34.344Z,988.81
2017-01-20T03:00:43.040Z,988.83
2017-01-20T03:01:51.731Z,988.83
2017-01-20T03:03:00.480Z,988.87
2017-01-20T03:04:09.194Z,988.88
2017-01-20T03:05:17.885Z,988.85
2017-01-20T03:06:26.576Z,988.86
2017-01-20T03:07:35.268Z,988.87
2017-01-20T03:08:44.010Z,988.9
2017-01-20T03:09:52.703Z,988.92
2017-01-20T03:11:01.396Z,988.87
2017-01-20T03:12:10.092Z,988.9
2017-01-20T03:13:18.783Z,988.86
2017-01-20T03:14:27.531Z,988.88
2017-01-20T03:15:36.252Z,988.87
2017-01-20T03:16:44.943Z,988.86
2017-01-20T03:17:53.634Z,988.92
2017-01-20T03:19:02.325Z,988.92
2017-01-20T03:20:11.015Z,988.94
2017-01-20T03:21:19.706Z,988.88
2017-01-20T03:22:28.400Z,988.89
2017-01-20T03:23:37.091Z,988.91
2017-01-20T03:24:45.780Z,988.91
2017-01-20T03:25:54.478Z,988.91
2017-01-20T03:27:03.170Z,988.9
2017-01-20T03:28:11.867Z,988.97
2017-01-20T03:29:20.554Z,988.99
2017-01-20T03:30:29.244Z,988.96
2017-01-20T03:31:37.938Z,988.95
2017-01-20T03:32:46.634Z,988.96
2017-01-20T03:33:55.325Z,988.97
2017-01-20T03:35:04.021Z,988.95
2017-01-20T03:36:12.738Z,988.97
2017-01-20T03:37:21.431Z,988.99
2017-01-20T03:38:30.130Z,989
2017-01-20T03:39:38.824Z,988.98
2017-01-20T03:40:47.530Z,989.05
2017-01-20T03:41:56.229Z,989.01
2017-01-20T03:43:04.923Z,989.04
2017-01-20T03:44:13.614Z,989.01
2017-01-20T03:45:22.310Z,989.02
2017-01-20T03:46:31.001Z,989.04
2017-01-20T03:47:39.693Z,989.02
2017-01-20T03:48:48.382Z,988.95
2017-01-20T03:49:57.076Z,988.92
2017-01-20T03:51:05.773Z,988.94
2017-01-20T03:52:14.465Z,988.95
2017-01-20T03:53:23.157Z,988.94
2017-01-20T03:54:31.850Z,988.92
2017-01-20T03:55:40.546Z,988.93
2017-01-20T03:56:49.241Z,988.96
2017-01-20T03:57:57.963Z,988.97
2017-01-20T03:59:06.654Z,989.02
2017-01-20T04:00:15.345Z,989.01
2017-01-20T04:01:24.046Z,989.03
2017-01-20T04:02:32.743Z,988.97
2017-01-20T04:03:41.445Z,988.98
2017-01-20T04:04:50.140Z,989
2017-01-20T04:05:58.863Z,988.98
2017-01-20T04:07:07.547Z,988.95
2017-01-20T04:08:16.238Z,988.95
2017-01-20T04:09:24.932Z,988.87
2017-01-20T04:10:33.654Z,988.89
2017-01-20T04:11:42.759Z,988.87
2017-01-20T04:12:51.453Z,988.84
2017-01-20T04:14:00.148Z,988.89
2017-01-20T04:15:08.839Z,988.87
2017-01-20T04:16:17.532Z,988.84
2017-01-20T04:17:26.220Z,988.85
2017-01-20T04:18:34.913Z,988.88
2017-01-20T04:19:43.628Z,988.86
2017-01-20T04:20:52.320Z,988.87
2017-01-20T04:22:01.037Z,988.83
2017-01-20T04:23:09.734Z,988.88
2017-01-20T04:24:18.428Z,988.84
2017-01-20T04:25:27.119Z,988.85
2017-01-20T04:26:35.812Z,988.88
2017-01-20T04:27:44.503Z,988.92
2017-01-20T04:28:53.194Z,988.83
2017-01-20T04:30:02.290Z,988.79
2017-01-20T04:31:10.985Z,988.82
2017-01-20T04:32:19.682Z,988.81
2017-01-20T04:33:28.376Z,988.81
2017-01-20T04:34:37.092Z,988.75
2017-01-20T04:35:45.784Z,988.77
2017-01-20T04:36:54.475Z,988.76
2017-01-20T04:38:03.165Z,988.77
2017-01-20T04:39:11.856Z,988.84
2017-01-20T04:40:20.572Z,988.83
2017-01-20T04:41:29.264Z,988.87
2017-01-20T04:42:38.348Z,988.78
2017-01-20T04:43:47.038Z,988.83
2017-01-20T04:44:55.729Z,988.8
2017-01-20T04:46:04.421Z,988.78
2017-01-20T04:47:13.119Z,988.77
2017-01-20T04:48:21.810Z,988.85
2017-01-20T04:49:30.498Z,988.79
2017-01-20T04:50:39.189Z,988.9
2017-01-20T04:51:47.887Z,988.86
2017-01-20T04:52:56.578Z,988.9
2017-01-20T04:54:05.277Z,988.9
2017-01-20T04:55:13.970Z,988.91
2017-01-20T04:56:22.666Z,988.91
2017-01-20T04:57:31.359Z,988.95
2017-01-20T04:58:40.050Z,988.94
2017-01-20T04:59:48.739Z,988.96
2017-01-20T05:00:57.432Z,988.88
2017-01-20T05:02:06.127Z,988.91
2017-01-20T05:03:14.819Z,988.88
2017-01-20T05:04:23.517Z,988.86
2017-01-20T05:05:32.208Z,988.83
2017-01-20T05:06:40.897Z,988.84
2017-01-20T05:07:49.608Z,988.79
2017-01-20T05:08:58.306Z,988.82
2017-01-20T05:10:07.027Z,988.8
2017-01-20T05:11:15.716Z,988.82
2017-01-20T05:12:24.414Z,988.78
2017-01-20T05:13:33.105Z,988.85
2017-01-20T05:14:41.795Z,988.81
2017-01-20T05:15:50.494Z,988.84
2017-01-20T05:16:59.212Z,988.87
2017-01-20T05:18:07.904Z,988.85
2017-01-20T05:19:16.592Z,988.84
2017-01-20T05:20:25.285Z,988.81
2017-01-20T05:21:33.985Z,988.84
2017-01-20T05:22:42.679Z,988.88
2017-01-20T05:23:51.372Z,988.92
2017-01-20T05:25:00.063Z,988.9
2017-01-20T05:26:08.759Z,988.91
2017-01-20T05:27:17.451Z,988.91
2017-01-20T05:28:26.152Z,988.92
2017-01-20T05:29:34.844Z,988.89
2017-01-20T05:30:43.534Z,988.86
2017-01-20T05:31:52.251Z,988.91
2017-01-20T05:33:00.938Z,988.95
2017-01-20T05:34:09.641Z,988.89
2017-01-20T05:35:18.338Z,988.91
2017-01-20T05:36:27.033Z,988.88
2017-01-20T05:37:35.729Z,988.86
2017-01-20T05:38:44.430Z,988.83
2017-01-20T05:39:53.122Z,988.83
2017-01-20T05:41:01.813Z,988.87
2017-01-20T05:42:10.506Z,988.86
2017-01-20T05:43:19.204Z,988.87
2017-01-20T05:44:27.900Z,988.83
2017-01-20T05:45:36.590Z,988.87
2017-01-20T05:46:45.283Z,988.82
2017-01-20T05:47:54.376Z,988.91
2017-01-20T05:49:03.069Z,988.94
2017-01-20T05:50:11.761Z,988.85
2017-01-20T05:51:20.452Z,988.84
2017-01-20T05:52:29.143Z,988.84
2017-01-20T05:53:37.835Z,988.84
2017-01-20T05:54:46.523Z,988.77
2017-01-20T05:55:55.224Z,988.74
2017-01-20T05:57:04.309Z,988.75
2017-01-20T05:58:13.005Z,988.69
2017-01-20T05:59:21.702Z,988.71
2017-01-20T06:00:30.398Z,988.71
2017-01-20T06:01:39.085Z,988.74
2017-01-20T06:02:47.802Z,988.71
2017-01-20T06:03:56.496Z,988.77
2017-01-20T06:05:05.189Z,988.75
2017-01-20T06:06:13.883Z,988.76
2017-01-20T06:07:22.573Z,988.78
2017-01-20T06:08:31.262Z,988.79
2017-01-20T06:09:39.951Z,988.76
2017-01-20T06:10:48.644Z,988.81
2017-01-20T06:11:57.335Z,988.8
2017-01-20T06:13:06.024Z,988.81
2017-01-20T06:14:14.713Z,988.82
2017-01-20T06:15:23.408Z,988.83
2017-01-20T06:16:32.098Z,988.8
2017-01-20T06:17:41.189Z,988.77
2017-01-20T06:18:49.885Z,988.76
2017-01-20T06:19:58.577Z,988.75
2017-01-20T06:21:07.272Z,988.72
2017-01-20T06:22:15.966Z,988.75
2017-01-20T06:23:24.686Z,988.71
2017-01-20T06:24:33.380Z,988.72
2017-01-20T06:25:42.083Z,988.73
2017-01-20T06:26:51.175Z,988.74
2017-01-20T06:27:59.870Z,988.76
2017-01-20T06:29:08.567Z,988.74
2017-01-20T06:30:17.260Z,988.74
2017-01-20T06:31:25.974Z,988.78
2017-01-20T06:32:35.075Z,988.78
2017-01-20T06:33:43.767Z,988.76
2017-01-20T06:34:52.460Z,988.76
2017-01-20T06:36:01.148Z,988.73
2017-01-20T06:37:09.840Z,988.73
2017-01-20T06:38:18.534Z,988.72
2017-01-20T06:39:27.627Z,988.73
2017-01-20T06:40:36.321Z,988.71
2017-01-20T06:41:45.017Z,988.71
2017-01-20T06:42:53.706Z,988.69
2017-01-20T06:44:02.400Z,988.63
2017-01-20T06:45:11.091Z,988.59
2017-01-20T06:46:19.790Z,988.66
2017-01-20T06:47:28.484Z,988.67
2017-01-20T06:48:37.181Z,988.66
2017-01-20T06:49:45.873Z,988.65
2017-01-20T06:50:54.572Z,988.57
2017-01-20T06:52:03.291Z,988.6
2017-01-20T06:53:11.986Z,988.61
2017-01-20T06:54:20.673Z,988.59
2017-01-20T06:55:29.360Z,988.58
2017-01-20T06:56:38.052Z,988.58
2017-01-20T06:57:46.741Z,988.6
2017-01-20T06:58:55.434Z,988.64
2017-01-20T07:00:04.134Z,988.68
2017-01-20T07:01:13.249Z,988.64
2017-01-20T07:02:21.942Z,988.65
2017-01-20T07:03:30.634Z,988.67
2017-01-20T07:04:39.344Z,988.74
2017-01-20T07:05:48.032Z,988.74
2017-01-20T07:06:56.731Z,988.84
2017-01-20T07:08:05.821Z,988.85
2017-01-20T07:09:14.512Z,988.79
2017-01-20T07:10:23.203Z,988.83
2017-01-20T07:11:31.892Z,988.81
2017-01-20T07:12:40.583Z,988.87
2017-01-20T07:13:49.275Z,988.81
2017-01-20T07:14:57.976Z,988.82
2017-01-20T07:16:06.671Z,988.88
2017-01-20T07:17:15.361Z,988.9
2017-01-20T07:18:24.071Z,988.82
2017-01-20T07:19:32.762Z,988.86
2017-01-20T07:20:41.458Z,988.97
2017-01-20T07:21:50.154Z,988.99
2017-01-20T07:22:58.844Z,988.98
2017-01-20T07:24:07.534Z,989.06
2017-01-20T07:25:16.234Z,989.07
2017-01-20T07:26:24.923Z,989.03
2017-01-20T07:27:33.610Z,989.1
2017-01-20T07:28:42.307Z,989.06
2017-01-20T07:29:51.004Z,989.08
2017-01-20T07:30:59.696Z,989.07
2017-01-20T07:32:08.386Z,989.1
2017-01-20T07:33:17.076Z,989.08
2017-01-20T07:34:25.772Z,989.12
2017-01-20T07:35:34.464Z,989.07
2017-01-20T07:36:43.160Z,989.1
2017-01-20T07:37:51.849Z,989.13
2017-01-20T07:39:00.543Z,989.17
2017-01-20T07:40:09.237Z,989.13
2017-01-20T07:41:17.930Z,989.16
2017-01-20T07:42:26.625Z,989.16
2017-01-20T07:43:35.314Z,989.21
2017-01-20T07:44:44.003Z,989.29
2017-01-20T07:45:52.731Z,989.24
2017-01-20T07:47:01.421Z,989.23
2017-01-20T07:48:10.111Z,989.24
2017-01-20T07:49:18.806Z,989.25
2017-01-20T07:50:27.523Z,989.26
2017-01-20T07:51:36.213Z,989.26
2017-01-20T07:52:44.902Z,989.31
2017-01-20T07:53:53.597Z,989.29
2017-01-20T07:55:02.290Z,989.35
2017-01-20T07:56:10.983Z,989.37
2017-01-20T07:57:19.676Z,989.31
2017-01-20T07:58:28.364Z,989.36
2017-01-20T07:59:37.052Z,989.38
2017-01-20T08:00:45.747Z,989.35
2017-01-20T08:01:54.441Z,989.39
2017-01-20T08:03:03.135Z,989.35
2017-01-20T08:04:11.826Z,989.38
2017-01-20T08:05:20.521Z,989.31
2017-01-20T08:06:29.214Z,989.29
2017-01-20T08:07:37.905Z,989.38
2017-01-20T08:08:46.598Z,989.41
2017-01-20T08:09:55.294Z,989.41
2017-01-20T08:11:03.990Z,989.42
2017-01-20T08:12:12.686Z,989.49
2017-01-20T08:13:21.379Z,989.51
2017-01-20T08:14:30.109Z,989.56
2017-01-20T08:15:38.800Z,989.59
2017-01-20T08:16:47.495Z,989.58
2017-01-20T08:17:56.633Z,989.56
2017-01-20T08:19:05.326Z,989.65
2017-01-20T08:20:14.014Z,989.76
2017-01-20T08:21:22.707Z,989.74
2017-01-20T08:22:31.403Z,989.73
2017-01-20T08:23:40.090Z,989.78
2017-01-20T08:24:48.783Z,989.77
2017-01-20T08:25:57.478Z,989.74
2017-01-20T08:27:06.168Z,989.78
2017-01-20T08:28:14.866Z,989.79
2017-01-20T08:29:23.561Z,989.82
2017-01-20T08:30:32.246Z,989.89
2017-01-20T08:31:40.945Z,989.86
2017-01-20T08:32:49.637Z,989.8
2017-01-20T08:33:58.362Z,989.82
2017-01-20T08:35:07.056Z,989.89
2017-01-20T08:36:15.748Z,989.88
2017-01-20T08:37:24.481Z,989.86
2017-01-20T08:38:33.181Z,989.9
2017-01-20T08:39:41.875Z,989.83
2017-01-20T08:40:50.568Z,989.88
2017-01-20T08:41:59.259Z,989.89
2017-01-20T08:43:07.952Z,989.86
2017-01-20T08:44:16.646Z,989.86
2017-01-20T08:45:25.342Z,989.83
2017-01-20T08:46:34.033Z,989.81
2017-01-20T08:47:42.737Z,989.84
2017-01-20T08:48:51.433Z,989.78
2017-01-20T08:50:00.134Z,989.82
2017-01-20T08:51:08.829Z,989.82
2017-01-20T08:52:17.525Z,989.86
2017-01-20T08:53:26.221Z,989.97
2017-01-20T08:54:34.912Z,989.94
2017-01-20T08:55:43.607Z,990
2017-01-20T08:56:52.297Z,990.03
2017-01-20T08:58:00.995Z,990.01
2017-01-20T08:59:10.087Z,989.96
2017-01-20T09:00:18.780Z,989.99
2017-01-20T09:01:27.491Z,989.95
2017-01-20T09:02:36.221Z,989.98
2017-01-20T09:03:44.921Z,990.04
2017-01-20T09:04:53.615Z,989.99
2017-01-20T09:06:02.312Z,990.05
2017-01-20T09:07:11.010Z,990.04
2017-01-20T09:08:19.704Z,990.03
2017-01-20T09:09:28.390Z,990.04
2017-01-20T09:10:37.079Z,990.02
2017-01-20T09:11:45.768Z,990.01
2017-01-20T09:12:54.463Z,990.04
2017-01-20T09:14:03.157Z,990.04
2017-01-20T09:15:11.843Z,990.07
2017-01-20T09:16:20.532Z,990.04
2017-01-20T09:17:29.227Z,990.09
2017-01-20T09:18:37.922Z,990.01
2017-01-20T09:19:46.613Z,990
2017-01-20T09:20:55.307Z,990
2017-01-20T09:22:04.014Z,989.95
2017-01-20T09:23:12.703Z,990.04
2017-01-20T09:24:21.393Z,990.07
2017-01-20T09:25:30.082Z,990.15
2017-01-20T09:26:38.770Z,990.19
2017-01-20T09:27:47.468Z,990.16
2017-01-20T09:28:56.165Z,990.16
2017-01-20T09:30:04.863Z,990.13
2017-01-20T09:31:13.552Z,990.11
2017-01-20T09:32:22.245Z,990.05
2017-01-20T09:33:30.939Z,990.04
2017-01-20T09:34:40.029Z,990.03
2017-01-20T09:35:48.725Z,990.06
2017-01-20T09:36:57.422Z,990.02
2017-01-20T09:38:06.115Z,990.03
2017-01-20T09:39:14.815Z,989.97
2017-01-20T09:40:23.517Z,989.89
2017-01-20T09:41:32.213Z,989.9
2017-01-20T09:42:40.905Z,989.9
2017-01-20T09:43:49.603Z,989.98
2017-01-20T09:44:58.292Z,989.97
2017-01-20T09:46:06.987Z,989.92
2017-01-20T09:47:15.681Z,989.92
2017-01-20T09:48:24.397Z,990
2017-01-20T09:49:33.092Z,990
2017-01-20T09:50:41.785Z,990.01
2017-01-20T09:51:50.487Z,990.06
2017-01-20T09:52:59.181Z,990.06
2017-01-20T09:54:07.877Z,990.11
2017-01-20T09:55:16.571Z,990.14
2017-01-20T09:56:25.264Z,990.13
2017-01-20T09:57:33.958Z,990.16
2017-01-20T09:58:42.656Z,990.16
2017-01-20T09:59:51.351Z,990.11
2017-01-20T10:01:00.048Z,990.15
2017-01-20T10:02:08.745Z,990.07
2017-01-20T10:03:17.440Z,990.09
2017-01-20T10:04:26.134Z,990.1
2017-01-20T10:05:34.825Z,990.06
2017-01-20T10:06:43.555Z,990.05
2017-01-20T10:07:52.256Z,990.04
2017-01-20T10:09:00.955Z,990.02
2017-01-20T10:10:09.649Z,990
2017-01-20T10:11:18.342Z,989.99
2017-01-20T10:12:27.035Z,990.05
2017-01-20T10:13:36.127Z,990.05
2017-01-20T10:14:44.823Z,990.06
2017-01-20T10:15:53.514Z,990.07
2017-01-20T10:17:02.209Z,990.06
2017-01-20T10:18:11.303Z,990.05
2017-01-20T10:19:19.995Z,989.96
2017-01-20T10:20:28.693Z,990.01
2017-01-20T10:21:37.386Z,989.96
2017-01-20T10:22:46.084Z,990
2017-01-20T10:23:54.779Z,989.96
2017-01-20T10:25:03.478Z,989.92
2017-01-20T10:26:12.182Z,989.9
2017-01-20T10:27:20.887Z,989.87
2017-01-20T10:28:29.594Z,989.87
2017-01-20T10:29:38.294Z,989.82
2017-01-20T10:30:46.984Z,989.84
2017-01-20T10:31:55.678Z,989.8
2017-01-20T10:33:04.372Z,989.79
2017-01-20T10:34:13.075Z,989.78
2017-01-20T10:35:21.771Z,989.74
2017-01-20T10:36:30.459Z,989.8
2017-01-20T10:37:39.156Z,989.8
2017-01-20T10:38:47.849Z,989.81
2017-01-20T10:39:56.541Z,989.79
2017-01-20T10:41:05.239Z,989.82
2017-01-20T10:42:13.946Z,989.77
2017-01-20T10:43:22.640Z,989.75
2017-01-20T10:44:31.330Z,989.8
2017-01-20T10:45:40.054Z,989.76
2017-01-20T10:46:48.747Z,989.88
2017-01-20T10:47:57.449Z,989.86
2017-01-20T10:49:06.143Z,989.74
2017-01-20T10:50:14.842Z,989.75
2017-01-20T10:51:23.542Z,989.78
2017-01-20T10:52:32.238Z,989.74
2017-01-20T10:53:40.931Z,989.73
2017-01-20T10:54:49.629Z,989.78
2017-01-20T10:55:58.324Z,989.79
2017-01-20T10:57:07.022Z,989.83
2017-01-20T10:58:15.718Z,989.79
2017-01-20T10:59:24.417Z,989.81
2017-01-20T11:00:33.136Z,989.82
2017-01-20T11:01:41.830Z,989.81
2017-01-20T11:02:50.564Z,989.81
2017-01-20T11:03:59.259Z,989.87
2017-01-20T11:05:07.960Z,989.88
2017-01-20T11:06:16.651Z,989.86
2017-01-20T11:07:25.353Z,989.88
2017-01-20T11:08:34.052Z,989.9
2017-01-20T11:09:43.145Z,989.8
2017-01-20T11:10:51.839Z,989.83
2017-01-20T11:12:00.530Z,989.81
2017-01-20T11:13:09.225Z,989.84
2017-01-20T11:14:17.924Z,989.84
2017-01-20T11:15:26.630Z,989.86
2017-01-20T11:16:35.327Z,989.84
2017-01-20T11:17:44.035Z,989.86
2017-01-20T11:18:52.737Z,989.86
2017-01-20T11:20:01.433Z,989.84
2017-01-20T11:21:10.149Z,989.86
2017-01-20T11:22:18.845Z,989.93
2017-01-20T11:23:27.567Z,989.82
2017-01-20T11:24:36.262Z,989.81
2017-01-20T11:25:44.965Z,989.78
2017-01-20T11:26:53.666Z,989.75
2017-01-20T11:28:02.359Z,989.77
2017-01-20T11:29:11.065Z,989.76
2017-01-20T11:30:19.758Z,989.79
2017-01-20T11:31:28.463Z,989.78
2017-01-20T11:32:37.169Z,989.8
2017-01-20T11:33:45.871Z,989.83
2017-01-20T11:34:54.578Z,989.98
2017-01-20T11:36:03.273Z,989.91
2017-01-20T11:37:11.972Z,989.9
2017-01-20T11:38:20.668Z,989.97
2017-01-20T11:39:29.369Z,989.9
2017-01-20T11:40:38.079Z,989.92
2017-01-20T11:41:47.631Z,989.86
2017-01-20T11:42:56.335Z,989.86
2017-01-20T11:44:05.038Z,989.88
2017-01-20T11:45:13.744Z,989.91
2017-01-20T11:46:22.446Z,989.93
2017-01-20T11:47:31.146Z,989.95
2017-01-20T11:48:39.846Z,989.96
2017-01-20T11:49:48.599Z,989.97
2017-01-20T11:50:57.300Z,989.93
2017-01-20T11:52:06.002Z,989.94
2017-01-20T11:53:14.719Z,989.93
2017-01-20T11:54:23.427Z,989.91
2017-01-20T11:55:32.178Z,989.92
2017-01-20T11:56:40.878Z,989.92
2017-01-20T11:57:49.580Z,989.89
2017-01-20T11:58:58.280Z,989.91
2017-01-20T12:00:06.982Z,989.84
2017-01-20T12:01:15.683Z,989.8
2017-01-20T12:02:24.384Z,989.82
2017-01-20T12:03:33.084Z,989.84
2017-01-20T12:04:41.783Z,989.85
2017-01-20T12:05:50.492Z,989.88
2017-01-20T12:06:59.194Z,989.89
2017-01-20T12:08:07.898Z,989.84
2017-01-20T12:09:16.603Z,989.84
2017-01-20T12:10:25.307Z,989.85
2017-01-20T12:11:34.011Z,989.92
2017-01-20T12:12:42.778Z,989.83
2017-01-20T12:13:51.481Z,989.85
2017-01-20T12:15:00.183Z,989.79
2017-01-20T12:16:08.888Z,989.89
2017-01-20T12:17:17.623Z,989.84
2017-01-20T12:18:26.323Z,989.78
2017-01-20T12:19:35.022Z,989.81
2017-01-20T12:20:43.729Z,989.84
2017-01-20T12:21:52.439Z,989.82
2017-01-20T12:23:01.170Z,989.77
2017-01-20T12:24:09.870Z,989.8
2017-01-20T12:25:18.596Z,989.77
2017-01-20T12:26:27.304Z,989.77
2017-01-20T12:27:36.001Z,989.76
2017-01-20T12:28:44.698Z,989.78
2017-01-20T12:29:53.403Z,989.75
2017-01-20T12:31:02.107Z,989.75
2017-01-20T12:32:10.816Z,989.73
2017-01-20T12:33:19.532Z,989.74
2017-01-20T12:34:28.255Z,989.76
2017-01-20T12:35:36.956Z,989.81
2017-01-20T12:36:45.660Z,989.8
2017-01-20T12:37:54.367Z,989.86
2017-01-20T12:39:03.074Z,989.88
2017-01-20T12:40:11.803Z,989.83
2017-01-20T12:41:20.509Z,989.84
2017-01-20T12:42:29.210Z,989.86
2017-01-20T12:43:37.918Z,989.86
2017-01-20T12:44:46.629Z,989.82
2017-01-20T12:45:55.330Z,989.8
2017-01-20T12:47:04.033Z,989.81
2017-01-20T12:48:12.741Z,989.85
2017-01-20T12:49:21.446Z,989.83
2017-01-20T12:50:30.152Z,989.82
2017-01-20T12:51:38.857Z,989.85
2017-01-20T12:52:47.587Z,989.88
2017-01-20T12:53:56.292Z,989.87
2017-01-20T12:55:05.039Z,989.82
2017-01-20T12:56:13.759Z,989.82
2017-01-20T12:57:22.465Z,989.84
2017-01-20T12:58:31.170Z,989.86
2017-01-20T12:59:39.876Z,989.87
2017-01-20T13:00:48.977Z,989.85
2017-01-20T13:01:57.685Z,989.85
2017-01-20T13:03:06.400Z,989.85
2017-01-20T13:04:15.114Z,989.9
2017-01-20T13:05:23.819Z,989.93
2017-01-20T13:06:32.523Z,989.89
2017-01-20T13:07:41.231Z,989.95
2017-01-20T13:08:49.942Z,989.97
2017-01-20T13:09:58.675Z,989.9
2017-01-20T13:11:07.380Z,989.89
2017-01-20T13:12:16.082Z,989.96
2017-01-20T13:13:24.798Z,989.9
2017-01-20T13:14:33.512Z,989.87
2017-01-20T13:15:42.223Z,989.84
2017-01-20T13:16:50.930Z,989.87
2017-01-20T13:17:59.633Z,989.85
2017-01-20T13:19:08.341Z,989.82
2017-01-20T13:20:17.043Z,989.78
2017-01-20T13:21:25.751Z,989.77
2017-01-20T13:22:34.455Z,989.79
2017-01-20T13:23:43.167Z,989.73
2017-01-20T13:24:51.877Z,989.77
2017-01-20T13:26:00.578Z,989.68
2017-01-20T13:27:09.287Z,989.69
2017-01-20T13:28:17.993Z,989.69
2017-01-20T13:29:26.699Z,989.73
2017-01-20T13:30:35.400Z,989.68
2017-01-20T13:31:44.101Z,989.71
2017-01-20T13:32:52.810Z,989.7
2017-01-20T13:34:01.514Z,989.79
2017-01-20T13:35:10.220Z,989.81
2017-01-20T13:36:18.922Z,989.84
2017-01-20T13:37:27.635Z,989.77
2017-01-20T13:38:36.340Z,989.77
2017-01-20T13:39:45.041Z,989.79
2017-01-20T13:40:53.742Z,989.79
2017-01-20T13:42:02.453Z,989.74
2017-01-20T13:43:11.159Z,989.77
2017-01-20T13:44:19.864Z,989.77
2017-01-20T13:45:28.567Z,989.73
2017-01-20T13:46:37.268Z,989.78
2017-01-20T13:47:45.971Z,989.7
2017-01-20T13:48:54.678Z,989.73
2017-01-20T13:50:03.378Z,989.82
2017-01-20T13:51:12.081Z,989.83
2017-01-20T13:52:20.780Z,989.86
2017-01-20T13:53:29.478Z,989.85
2017-01-20T13:54:38.198Z,989.87
2017-01-20T13:55:47.295Z,989.87
2017-01-20T13:56:56.015Z,989.9
2017-01-20T13:58:04.720Z,989.88
2017-01-20T13:59:13.416Z,989.86
2017-01-20T14:00:22.132Z,989.89
2017-01-20T14:01:30.851Z,989.83
2017-01-20T14:02:39.549Z,989.85
2017-01-20T14:03:48.255Z,989.81
2017-01-20T14:04:56.954Z,989.84
2017-01-20T14:06:05.652Z,989.9
2017-01-20T14:07:14.348Z,989.76
2017-01-20T14:08:23.044Z,989.84
2017-01-20T14:09:31.743Z,989.91
2017-01-20T14:10:40.438Z,989.87
2017-01-20T14:11:49.130Z,989.82
2017-01-20T14:12:57.861Z,989.84
2017-01-20T14:14:06.561Z,989.8
2017-01-20T14:15:15.260Z,989.82
2017-01-20T14:16:23.956Z,989.82
2017-01-20T14:17:32.652Z,989.85
2017-01-20T14:18:41.350Z,989.84
2017-01-20T14:19:50.043Z,989.9
2017-01-20T14:20:58.739Z,989.88